Time;durP1;ratioP1;P1;durP2;ratioP2;P2;SDS_P1;SDS_P2;PMS_P1;PMS_P2;Temp;Humidity;BMP_temperature;BMP_pressure;BME280_temperature;BME280_humidity;BME280_pressure;Samples;Min_cycle;Max_cycle;Signal;HPM_P1;HPM_P2
2022/01/13 00:01:16;;;;;;;87.15;22.73;;;;;;;;;;6188244;23;20080;-91
2022/01/13 00:03:41;;;;;;;81.95;16.70;;;;;;;;;;6186000;23;20021;-91
2022/01/13 00:06:06;;;;;;;82.45;18.55;;;;;;;;;;6191046;23;20000;-91
2022/01/13 00:08:32;;;;;;;61.58;18.63;;;;;;;;;;6187256;23;20005;-91
2022/01/13 00:10:57;;;;;;;75.07;15.68;;;;;;;;;;6186708;23;20140;-91
2022/01/13 00:13:26;;;;;;;70.43;16.03;;;;;;;;;;6183255;23;20085;-91
2022/01/13 00:16:25;;;;;;;82.10;19.00;;;;;;;;;;6184511;23;20333;-91
2022/01/13 00:18:51;;;;;;;66.78;19.02;;;;;;;;;;6184362;23;20047;-91
2022/01/13 00:21:41;;;;;;;83.32;17.80;;;;;;;;;;6158355;23;20017;-91
2022/01/13 00:24:04;;;;;;;63.60;16.70;;;;;;;;;;6183570;23;20178;-91
2022/01/13 00:26:32;;;;;;;68.55;14.23;;;;;;;;;;6184838;23;20414;-91
2022/01/13 00:28:59;;;;;;;71.65;16.40;;;;;;;;;;6183487;23;20041;-91
2022/01/13 00:31:28;;;;;;;74.57;18.92;;;;;;;;;;6182581;23;19997;-91
2022/01/13 00:33:54;;;;;;;75.80;19.73;;;;;;;;;;6157350;23;20008;-91
2022/01/13 00:36:24;;;;;;;64.25;16.83;;;;;;;;;;6183535;23;20024;-91
2022/01/13 00:38:50;;;;;;;69.10;16.17;;;;;;;;;;6191273;23;20043;-91
2022/01/13 00:41:15;;;;;;;71.63;18.42;;;;;;;;;;6162468;23;20013;-91
2022/01/13 00:43:42;;;;;;;56.45;14.30;;;;;;;;;;6186376;23;19995;-91
2022/01/13 00:46:08;;;;;;;71.32;14.23;;;;;;;;;;6186013;23;19997;-90
2022/01/13 00:48:33;;;;;;;73.07;17.67;;;;;;;;;;6183971;23;20326;-91
2022/01/13 00:50:58;;;;;;;64.65;16.48;;;;;;;;;;6185147;23;20001;-91
2022/01/13 00:53:23;;;;;;;73.75;13.77;;;;;;;;;;6183363;23;20001;-91
2022/01/13 00:55:57;;;;;;;55.08;11.07;;;;;;;;;;6187208;23;20001;-91
2022/01/13 00:58:23;;;;;;;77.93;12.88;;;;;;;;;;6184602;23;20043;-91
2022/01/13 01:00:49;;;;;;;60.92;12.60;;;;;;;;;;6182815;23;20012;-91
2022/01/13 01:03:14;;;;;;;66.68;12.73;;;;;;;;;;6158500;23;20417;-91
2022/01/13 01:05:39;;;;;;;54.70;13.10;;;;;;;;;;6184245;23;20087;-91
2022/01/13 01:08:05;;;;;;;78.70;14.35;;;;;;;;;;6181887;23;20087;-91
2022/01/13 01:10:31;;;;;;;61.60;12.93;;;;;;;;;;6181669;23;20323;-91
2022/01/13 01:12:56;;;;;;;55.65;11.27;;;;;;;;;;6158942;23;19996;-91
2022/01/13 01:15:21;;;;;;;55.70;11.85;;;;;;;;;;6189323;23;20072;-91
2022/01/13 01:17:53;;;;;;;72.72;14.73;;;;;;;;;;6159862;23;20047;-91
2022/01/13 01:20:19;;;;;;;63.10;12.43;;;;;;;;;;6183842;23;20437;-91
2022/01/13 01:25:42;;;;;;;73.20;15.75;;;;;;;;;;6193677;23;20005;-91
2022/01/13 01:28:13;;;;;;;53.92;13.73;;;;;;;;;;6182664;23;20029;-91
2022/01/13 01:30:42;;;;;;;64.75;16.27;;;;;;;;;;6187174;23;19997;-91
2022/01/13 01:33:10;;;;;;;62.65;12.68;;;;;;;;;;6156820;23;20005;-91
2022/01/13 01:35:37;;;;;;;67.82;15.60;;;;;;;;;;6183519;23;19997;-91
2022/01/13 01:38:03;;;;;;;69.95;15.93;;;;;;;;;;6181659;23;20937;-91
2022/01/13 01:40:28;;;;;;;70.10;16.60;;;;;;;;;;6157688;23;20005;-91
2022/01/13 01:42:54;;;;;;;59.97;15.48;;;;;;;;;;6182048;23;20001;-91
2022/01/13 01:45:19;;;;;;;59.60;12.90;;;;;;;;;;6159160;23;20346;-90
2022/01/13 01:47:45;;;;;;;70.15;13.90;;;;;;;;;;6184480;23;20000;-90
2022/01/13 01:50:18;;;;;;;68.53;15.45;;;;;;;;;;6166538;23;20001;-91
2022/01/13 01:52:45;;;;;;;66.15;16.38;;;;;;;;;;6181622;23;20005;-91
2022/01/13 01:55:10;;;;;;;60.30;14.82;;;;;;;;;;6182993;23;20004;-91
2022/01/13 01:57:36;;;;;;;68.70;15.68;;;;;;;;;;6183426;23;20005;-91
2022/01/13 02:00:02;;;;;;;62.92;10.95;;;;;;;;;;6181280;23;20001;-91
2022/01/13 02:02:28;;;;;;;57.20;11.93;;;;;;;;;;6183553;23;20067;-91
2022/01/13 02:04:54;;;;;;;59.55;13.75;;;;;;;;;;6184554;23;20028;-91
2022/01/13 02:07:19;;;;;;;63.60;13.98;;;;;;;;;;6183121;23;20002;-91
2022/01/13 02:09:50;;;;;;;56.75;14.30;;;;;;;;;;6183236;23;20001;-92
2022/01/13 02:12:22;;;;;;;72.95;17.23;;;;;;;;;;6156714;23;20012;-92
2022/01/13 02:15:04;;;;;;;60.22;13.40;;;;;;;;;;6193743;23;20001;-91
2022/01/13 02:17:34;;;;;;;76.57;14.73;;;;;;;;;;6187804;23;20099;-91
2022/01/13 02:20:00;;;;;;;61.63;13.23;;;;;;;;;;6187538;23;20001;-91
2022/01/13 02:22:25;;;;;;;58.58;12.77;;;;;;;;;;6156274;23;20039;-91
2022/01/13 02:24:51;;;;;;;55.65;12.18;;;;;;;;;;6181010;23;20028;-91
2022/01/13 02:27:16;;;;;;;51.75;12.60;;;;;;;;;;6156322;23;20092;-91
2022/01/13 02:29:41;;;;;;;58.87;13.63;;;;;;;;;;6181360;23;20005;-91
2022/01/13 02:32:07;;;;;;;60.28;11.38;;;;;;;;;;6182060;23;20681;-91
2022/01/13 02:34:33;;;;;;;68.88;13.75;;;;;;;;;;6182977;23;20434;-91
2022/01/13 02:36:59;;;;;;;57.78;13.18;;;;;;;;;;6181826;23;20032;-91
2022/01/13 02:39:27;;;;;;;64.47;11.70;;;;;;;;;;6182763;23;20005;-91
2022/01/13 02:41:52;;;;;;;54.92;11.80;;;;;;;;;;6184958;23;20104;-91
2022/01/13 02:44:21;;;;;;;76.43;14.70;;;;;;;;;;6158721;23;20028;-91
2022/01/13 02:49:16;;;;;;;52.13;14.98;;;;;;;;;;6184816;23;20048;-88
2022/01/13 02:51:42;;;;;;;61.08;12.90;;;;;;;;;;6183553;23;20430;-88
2022/01/13 02:54:08;;;;;;;63.60;13.73;;;;;;;;;;6190534;23;20044;-88
2022/01/13 02:56:33;;;;;;;65.05;12.32;;;;;;;;;;6186684;23;20001;-89
2022/01/13 02:58:59;;;;;;;69.60;13.35;;;;;;;;;;6184887;23;20051;-88
2022/01/13 03:01:24;;;;;;;70.93;11.90;;;;;;;;;;6185010;23;20012;-88
2022/01/13 03:03:50;;;;;;;75.22;14.73;;;;;;;;;;6186110;23;20004;-89
2022/01/13 03:06:20;;;;;;;63.20;15.00;;;;;;;;;;6186487;23;19997;-88
2022/01/13 03:08:46;;;;;;;73.05;17.10;;;;;;;;;;6187002;23;20136;-89
2022/01/13 03:11:12;;;;;;;66.60;17.35;;;;;;;;;;6184110;23;20403;-88
2022/01/13 03:13:37;;;;;;;61.20;13.90;;;;;;;;;;6161182;23;20045;-88
2022/01/13 03:16:10;;;;;;;74.00;15.88;;;;;;;;;;6185034;23;20103;-88
2022/01/13 03:18:35;;;;;;;65.85;16.17;;;;;;;;;;6157154;23;20035;-88
2022/01/13 03:21:01;;;;;;;74.70;17.90;;;;;;;;;;6183912;23;20092;-88
2022/01/13 03:23:26;;;;;;;64.25;13.80;;;;;;;;;;6185803;23;20088;-88
2022/01/13 03:25:51;;;;;;;81.55;18.75;;;;;;;;;;6191202;23;20402;-88
2022/01/13 03:28:28;;;;;;;83.70;15.25;;;;;;;;;;6183660;23;20429;-88
2022/01/13 03:30:53;;;;;;;61.85;14.18;;;;;;;;;;6184079;23;20047;-88
2022/01/13 03:33:18;;;;;;;73.65;11.73;;;;;;;;;;6183455;23;20381;-88
2022/01/13 03:35:43;;;;;;;68.00;14.95;;;;;;;;;;6182436;23;20084;-88
2022/01/13 03:38:09;;;;;;;65.63;14.45;;;;;;;;;;6182669;23;20075;-88
2022/01/13 03:40:35;;;;;;;62.03;11.20;;;;;;;;;;6181877;23;20001;-89
2022/01/13 03:43:01;;;;;;;63.88;14.20;;;;;;;;;;6181994;23;20012;-88
2022/01/13 03:45:27;;;;;;;61.83;16.45;;;;;;;;;;6183806;23;20001;-88
2022/01/13 03:47:53;;;;;;;62.83;13.60;;;;;;;;;;6183744;23;20084;-88
2022/01/13 03:50:18;;;;;;;69.15;15.20;;;;;;;;;;6183413;23;20001;-88
2022/01/13 03:53:01;;;;;;;70.95;14.80;;;;;;;;;;6184462;23;20476;-88
2022/01/13 03:55:35;;;;;;;72.93;14.65;;;;;;;;;;6160651;23;19997;-88
2022/01/13 03:58:19;;;;;;;74.25;15.27;;;;;;;;;;6162864;23;20003;-88
2022/01/13 04:00:46;;;;;;;55.00;10.95;;;;;;;;;;6185481;23;20500;-89
2022/01/13 04:03:11;;;;;;;59.38;14.20;;;;;;;;;;6183961;23;20645;-89
2022/01/13 04:05:56;;;;;;;58.20;12.15;;;;;;;;;;6184404;23;20008;-89
2022/01/13 04:08:21;;;;;;;56.95;13.93;;;;;;;;;;6182363;23;20005;-89
2022/01/13 04:10:47;;;;;;;65.13;13.40;;;;;;;;;;6184354;23;20008;-88
2022/01/13 04:13:32;;;;;;;76.55;18.15;;;;;;;;;;6160350;23;20237;-89
2022/01/13 04:15:57;;;;;;;61.05;16.50;;;;;;;;;;6186018;23;20021;-89
2022/01/13 04:18:22;;;;;;;68.33;15.60;;;;;;;;;;6184011;23;20333;-89
2022/01/13 04:20:47;;;;;;;69.23;18.17;;;;;;;;;;6156915;23;20244;-89
2022/01/13 04:23:13;;;;;;;62.53;15.90;;;;;;;;;;6183659;23;20260;-89
2022/01/13 04:25:41;;;;;;;67.43;17.00;;;;;;;;;;6157386;23;20228;-89
2022/01/13 04:28:06;;;;;;;63.15;16.27;;;;;;;;;;6183615;23;20127;-89
2022/01/13 04:30:46;;;;;;;68.53;13.35;;;;;;;;;;6185729;23;20032;-89
2022/01/13 04:33:12;;;;;;;48.25;10.73;;;;;;;;;;6183640;23;20050;-89
2022/01/13 04:35:38;;;;;;;70.60;13.00;;;;;;;;;;6159384;23;20092;-89
2022/01/13 04:38:03;;;;;;;69.25;17.38;;;;;;;;;;6159715;23;19997;-88
2022/01/13 04:40:28;;;;;;;65.67;14.90;;;;;;;;;;6159769;23;20414;-89
2022/01/13 04:42:55;;;;;;;55.95;15.40;;;;;;;;;;6158318;23;20274;-88
2022/01/13 04:45:21;;;;;;;65.70;16.15;;;;;;;;;;6156579;23;20028;-88
2022/01/13 04:47:48;;;;;;;63.95;14.32;;;;;;;;;;6182783;23;19996;-89
2022/01/13 04:50:13;;;;;;;62.35;14.85;;;;;;;;;;6183616;23;20023;-89
2022/01/13 04:52:38;;;;;;;58.08;16.38;;;;;;;;;;6182326;23;20338;-89
2022/01/13 04:55:09;;;;;;;58.88;17.50;;;;;;;;;;6184868;23;20004;-89
2022/01/13 04:57:35;;;;;;;57.33;15.38;;;;;;;;;;6186600;23;20426;-89
2022/01/13 05:00:00;;;;;;;51.35;15.05;;;;;;;;;;6190798;23;20001;-89
2022/01/13 05:02:26;;;;;;;65.75;12.85;;;;;;;;;;6186448;23;20032;-89
2022/01/13 05:04:51;;;;;;;49.65;8.82;;;;;;;;;;6184496;23;20415;-89
2022/01/13 05:07:16;;;;;;;60.13;14.43;;;;;;;;;;6185833;23;20004;-89
2022/01/13 05:09:41;;;;;;;43.45;12.48;;;;;;;;;;6184719;23;21020;-89
2022/01/13 05:12:07;;;;;;;48.77;12.07;;;;;;;;;;6186448;23;20433;-89
2022/01/13 05:14:32;;;;;;;56.38;10.25;;;;;;;;;;6159869;23;20232;-89
2022/01/13 05:17:05;;;;;;;59.10;8.40;;;;;;;;;;6184740;23;20021;-89
2022/01/13 09:42:06;;;;;;;52.63;10.20;;;;;;;;;;6140632;23;20217;-88
2022/01/13 16:41:25;;;;;;;30.15;5.88;;;;;;;;;;6140962;23;20280;-88
2022/01/13 16:43:50;;;;;;;35.92;5.35;;;;;;;;;;6180814;23;20025;-88
2022/01/13 16:46:16;;;;;;;32.87;5.90;;;;;;;;;;6155573;23;20353;-88
2022/01/13 16:48:41;;;;;;;21.13;5.40;;;;;;;;;;6182505;23;20287;-88
2022/01/13 16:51:06;;;;;;;37.33;6.03;;;;;;;;;;6180675;23;20028;-88
2022/01/13 16:53:31;;;;;;;26.02;5.82;;;;;;;;;;6180030;23;20522;-88
2022/01/13 16:55:57;;;;;;;28.10;5.70;;;;;;;;;;6182130;23;20001;-88
2022/01/13 16:58:24;;;;;;;19.48;5.05;;;;;;;;;;6182156;23;19997;-88
2022/01/13 17:00:49;;;;;;;28.88;4.63;;;;;;;;;;6155767;23;20015;-88
2022/01/13 17:03:15;;;;;;;33.22;5.85;;;;;;;;;;6180599;23;20001;-88
2022/01/13 17:05:42;;;;;;;25.67;4.60;;;;;;;;;;6182301;23;20005;-88
2022/01/13 17:08:10;;;;;;;16.17;4.18;;;;;;;;;;6182218;23;19997;-88
2022/01/13 17:10:35;;;;;;;26.20;5.22;;;;;;;;;;6182354;23;19997;-88
2022/01/13 17:13:01;;;;;;;20.77;4.88;;;;;;;;;;6181853;23;20005;-88
2022/01/13 17:15:26;;;;;;;30.95;5.05;;;;;;;;;;6182098;23;20076;-88
2022/01/13 17:17:51;;;;;;;24.27;5.30;;;;;;;;;;6182195;23;20003;-88
2022/01/13 17:20:17;;;;;;;23.48;4.90;;;;;;;;;;6182271;23;20001;-88
2022/01/13 17:22:42;;;;;;;29.08;5.05;;;;;;;;;;6180162;23;20023;-88
2022/01/13 17:25:10;;;;;;;29.73;4.75;;;;;;;;;;6181936;23;20001;-88
2022/01/13 17:27:35;;;;;;;28.58;6.22;;;;;;;;;;6155624;23;20005;-88
2022/01/13 17:30:00;;;;;;;28.00;5.05;;;;;;;;;;6180198;23;20011;-88
2022/01/13 17:32:26;;;;;;;29.42;5.82;;;;;;;;;;6182192;23;20404;-88
2022/01/13 17:34:52;;;;;;;27.70;5.55;;;;;;;;;;6181998;23;20139;-88
2022/01/13 17:37:18;;;;;;;30.58;5.90;;;;;;;;;;6155347;23;19997;-88
2022/01/13 17:39:43;;;;;;;33.13;6.30;;;;;;;;;;6181675;23;20082;-88
2022/01/13 17:42:08;;;;;;;27.25;6.55;;;;;;;;;;6181407;23;20092;-87
2022/01/13 17:44:33;;;;;;;33.97;6.30;;;;;;;;;;6180018;23;20005;-88
2022/01/13 17:46:59;;;;;;;27.95;5.72;;;;;;;;;;6180095;23;20323;-88
2022/01/13 17:49:25;;;;;;;28.08;6.18;;;;;;;;;;6181465;23;19997;-88
2022/01/13 17:51:50;;;;;;;33.50;5.38;;;;;;;;;;6180030;23;20013;-88
2022/01/13 17:54:15;;;;;;;23.55;4.93;;;;;;;;;;6154851;23;20367;-87
2022/01/13 17:56:40;;;;;;;27.45;5.70;;;;;;;;;;6179529;23;20801;-88
2022/01/13 17:59:05;;;;;;;31.60;6.18;;;;;;;;;;6179687;23;20009;-88
2022/01/13 18:01:31;;;;;;;28.25;5.90;;;;;;;;;;6155054;23;20017;-88
2022/01/13 18:03:56;;;;;;;33.07;6.93;;;;;;;;;;6179659;23;20016;-87
2022/01/13 18:06:21;;;;;;;30.33;8.03;;;;;;;;;;6181037;23;20225;-88
2022/01/13 18:08:46;;;;;;;40.78;5.78;;;;;;;;;;6155062;23;20240;-88
2022/01/13 18:11:12;;;;;;;22.08;4.82;;;;;;;;;;6180930;23;20027;-88
2022/01/13 18:13:38;;;;;;;28.15;5.63;;;;;;;;;;6154113;23;20426;-88
2022/01/13 18:16:04;;;;;;;25.10;5.00;;;;;;;;;;6180092;23;20005;-89
2022/01/13 18:18:29;;;;;;;21.80;5.22;;;;;;;;;;6181729;23;20028;-88
2022/01/13 18:20:54;;;;;;;28.45;5.95;;;;;;;;;;6180190;23;20005;-88
2022/01/13 18:23:19;;;;;;;28.15;5.43;;;;;;;;;;6181485;23;20468;-88
2022/01/13 18:25:45;;;;;;;27.80;5.13;;;;;;;;;;6181747;23;19997;-88
2022/01/13 18:28:11;;;;;;;26.42;5.38;;;;;;;;;;6179864;23;20016;-88
2022/01/13 18:30:36;;;;;;;27.20;4.47;;;;;;;;;;6154932;23;20001;-88
2022/01/13 18:33:02;;;;;;;25.83;5.05;;;;;;;;;;6179799;23;20012;-88
2022/01/13 18:35:27;;;;;;;26.83;5.72;;;;;;;;;;6181011;23;20064;-88
2022/01/13 18:37:52;;;;;;;22.85;6.38;;;;;;;;;;6181396;23;20131;-87
2022/01/13 18:40:17;;;;;;;28.70;5.78;;;;;;;;;;6181458;23;19997;-87
2022/01/13 18:42:49;;;;;;;24.93;5.17;;;;;;;;;;6180937;23;20016;-90
2022/01/13 18:45:21;;;;;;;29.17;4.68;;;;;;;;;;6180002;23;20236;-88
2022/01/13 18:47:51;;;;;;;30.88;6.63;;;;;;;;;;6181583;23;20641;-88
2022/01/13 18:50:16;;;;;;;26.17;4.50;;;;;;;;;;6181450;23;20001;-88
2022/01/13 18:52:41;;;;;;;28.35;4.25;;;;;;;;;;6179875;23;20035;-88
2022/01/13 18:55:06;;;;;;;26.73;5.13;;;;;;;;;;6181048;23;20009;-88
2022/01/13 18:57:32;;;;;;;26.52;5.72;;;;;;;;;;6180731;23;20279;-88
2022/01/13 18:59:57;;;;;;;25.15;4.35;;;;;;;;;;6181150;23;20036;-88
2022/01/13 19:02:22;;;;;;;26.95;5.50;;;;;;;;;;6179519;23;20108;-87
2022/01/13 19:04:47;;;;;;;19.90;4.87;;;;;;;;;;6155519;23;20004;-90
2022/01/13 19:07:12;;;;;;;23.00;4.13;;;;;;;;;;6180197;23;20221;-89
2022/01/13 19:09:38;;;;;;;22.23;4.63;;;;;;;;;;6155491;23;19994;-90
2022/01/13 19:12:03;;;;;;;21.77;3.70;;;;;;;;;;6179840;23;20229;-89
2022/01/13 19:14:30;;;;;;;25.75;4.88;;;;;;;;;;6181465;23;20677;-88
2022/01/13 19:17:04;;;;;;;17.17;3.63;;;;;;;;;;6155248;23;20092;-89
2022/01/13 19:19:33;;;;;;;23.77;5.65;;;;;;;;;;6181764;23;19997;-88
2022/01/13 19:21:58;;;;;;;18.90;4.00;;;;;;;;;;6182153;23;20009;-88
2022/01/13 19:24:23;;;;;;;28.37;4.83;;;;;;;;;;6183691;23;20008;-88
2022/01/13 19:26:48;;;;;;;28.15;4.95;;;;;;;;;;6181304;23;20444;-88
2022/01/13 19:29:13;;;;;;;24.70;6.10;;;;;;;;;;6183129;23;20076;-88
2022/01/13 19:31:38;;;;;;;26.75;4.60;;;;;;;;;;6156620;23;20221;-88
2022/01/13 19:34:04;;;;;;;23.00;4.73;;;;;;;;;;6183358;23;20012;-88
2022/01/13 19:36:29;;;;;;;28.05;5.47;;;;;;;;;;6157145;23;20236;-88
2022/01/13 19:38:55;;;;;;;31.88;5.68;;;;;;;;;;6156324;23;20001;-87
2022/01/13 19:41:21;;;;;;;14.57;3.13;;;;;;;;;;6156292;23;20023;-87
2022/01/13 19:43:46;;;;;;;17.77;4.10;;;;;;;;;;6182091;23;20095;-87
2022/01/13 19:46:11;;;;;;;30.88;4.97;;;;;;;;;;6182870;23;20565;-89
2022/01/13 19:48:37;;;;;;;21.00;3.83;;;;;;;;;;6181244;23;20359;-87
2022/01/13 19:51:04;;;;;;;25.83;4.15;;;;;;;;;;6182975;23;20005;-88
2022/01/13 19:53:37;;;;;;;24.80;4.75;;;;;;;;;;6182697;23;20430;-88
2022/01/13 19:56:03;;;;;;;21.67;4.25;;;;;;;;;;6182637;23;20024;-88
2022/01/13 19:58:28;;;;;;;25.67;4.63;;;;;;;;;;6182358;23;20668;-88
2022/01/13 20:00:53;;;;;;;21.52;3.95;;;;;;;;;;6180109;23;20080;-88
2022/01/13 20:03:18;;;;;;;25.80;3.88;;;;;;;;;;6182303;23;20028;-88
2022/01/13 20:05:45;;;;;;;27.60;4.68;;;;;;;;;;6182828;23;20029;-88
2022/01/13 20:08:10;;;;;;;21.40;4.50;;;;;;;;;;6183146;23;20001;-88
2022/01/13 20:10:36;;;;;;;21.27;4.55;;;;;;;;;;6182746;23;20001;-88
2022/01/13 20:13:03;;;;;;;23.67;5.25;;;;;;;;;;6182679;23;20032;-88
2022/01/13 20:15:30;;;;;;;18.65;4.53;;;;;;;;;;6180479;23;20005;-88
2022/01/13 20:17:55;;;;;;;24.30;5.03;;;;;;;;;;6182017;23;19997;-88
2022/01/13 20:20:20;;;;;;;31.25;4.88;;;;;;;;;;6182271;23;20019;-88
2022/01/13 20:22:46;;;;;;;17.63;4.03;;;;;;;;;;6182415;23;20008;-88
2022/01/13 20:25:12;;;;;;;21.20;3.75;;;;;;;;;;6180988;23;20036;-88
2022/01/13 20:27:41;;;;;;;23.63;4.78;;;;;;;;;;6182785;23;20000;-88
2022/01/13 20:30:16;;;;;;;21.52;4.07;;;;;;;;;;6182353;23;20001;-88
2022/01/13 20:32:41;;;;;;;32.42;5.07;;;;;;;;;;6155814;23;19997;-88
2022/01/13 20:35:07;;;;;;;34.10;5.85;;;;;;;;;;6182003;23;20058;-88
2022/01/13 20:37:32;;;;;;;22.55;5.00;;;;;;;;;;6182134;23;20005;-88
2022/01/13 20:39:58;;;;;;;24.95;4.28;;;;;;;;;;6182392;23;20468;-89
2022/01/13 20:42:23;;;;;;;21.35;4.97;;;;;;;;;;6155765;23;20471;-89
2022/01/13 20:44:48;;;;;;;23.87;4.43;;;;;;;;;;6182628;23;20013;-88
2022/01/13 20:47:13;;;;;;;19.07;3.90;;;;;;;;;;6182685;23;20243;-88
2022/01/13 20:49:38;;;;;;;25.23;4.68;;;;;;;;;;6182933;23;20259;-87
2022/01/13 20:52:04;;;;;;;20.60;4.67;;;;;;;;;;6156255;23;20418;-88
2022/01/13 20:54:30;;;;;;;23.98;5.43;;;;;;;;;;6156492;23;20343;-88
2022/01/13 20:56:55;;;;;;;31.38;4.90;;;;;;;;;;6183352;23;20020;-88
2022/01/13 20:59:20;;;;;;;20.60;4.18;;;;;;;;;;6182387;23;20056;-88
2022/01/13 21:01:45;;;;;;;24.30;4.30;;;;;;;;;;6156003;23;20013;-88
2022/01/13 21:04:10;;;;;;;22.67;4.40;;;;;;;;;;6156053;23;20723;-89
2022/01/13 21:06:36;;;;;;;28.53;4.40;;;;;;;;;;6180524;23;20004;-89
2022/01/13 21:09:02;;;;;;;24.38;4.50;;;;;;;;;;6155429;23;20263;-88
2022/01/13 21:11:27;;;;;;;28.45;4.55;;;;;;;;;;6182406;23;20647;-88
2022/01/13 21:13:53;;;;;;;25.20;5.25;;;;;;;;;;6182679;23;20004;-88
2022/01/13 21:16:19;;;;;;;19.25;4.72;;;;;;;;;;6182102;23;20075;-88
2022/01/13 21:18:44;;;;;;;22.92;6.57;;;;;;;;;;6180375;23;20382;-88
2022/01/13 21:21:09;;;;;;;27.10;4.20;;;;;;;;;;6182287;23;20009;-88
2022/01/13 21:23:35;;;;;;;25.00;4.70;;;;;;;;;;6180466;23;20337;-88
2022/01/13 21:26:00;;;;;;;27.80;4.78;;;;;;;;;;6155389;23;20228;-88
2022/01/13 21:28:25;;;;;;;28.27;4.27;;;;;;;;;;6181908;23;20001;-88
2022/01/13 21:30:55;;;;;;;24.40;4.93;;;;;;;;;;6182739;23;20239;-88
2022/01/13 21:33:21;;;;;;;27.75;5.35;;;;;;;;;;6155643;23;20012;-88
2022/01/13 21:35:46;;;;;;;29.15;5.35;;;;;;;;;;6182124;23;20001;-88
2022/01/13 21:38:11;;;;;;;26.80;5.57;;;;;;;;;;6181074;23;20001;-88
2022/01/13 21:40:37;;;;;;;29.98;5.40;;;;;;;;;;6180923;23;19997;-88
2022/01/13 21:43:02;;;;;;;31.05;5.05;;;;;;;;;;6154995;23;20418;-88
2022/01/13 21:45:28;;;;;;;26.80;6.57;;;;;;;;;;6155308;23;20008;-88
2022/01/13 21:47:53;;;;;;;40.50;5.57;;;;;;;;;;6155204;23;20488;-89
2022/01/13 21:50:19;;;;;;;25.67;4.75;;;;;;;;;;6182928;23;19993;-89
2022/01/13 21:52:45;;;;;;;29.25;5.53;;;;;;;;;;6182973;23;20001;-88
2022/01/13 21:55:10;;;;;;;38.75;6.10;;;;;;;;;;6182985;23;20377;-89
2022/01/13 21:57:36;;;;;;;37.78;5.75;;;;;;;;;;6156629;23;20071;-88
2022/01/13 22:00:03;;;;;;;34.00;5.35;;;;;;;;;;6182179;23;20007;-88
2022/01/13 22:02:28;;;;;;;30.60;6.85;;;;;;;;;;6181493;23;20025;-88
2022/01/13 22:04:55;;;;;;;41.13;9.25;;;;;;;;;;6155411;23;20203;-88
2022/01/13 22:07:21;;;;;;;36.13;6.00;;;;;;;;;;6181753;23;20809;-88
2022/01/13 22:09:50;;;;;;;40.22;6.53;;;;;;;;;;6181773;23;20075;-88
2022/01/13 22:12:16;;;;;;;29.13;5.88;;;;;;;;;;6180057;23;20008;-88
2022/01/13 22:14:43;;;;;;;30.92;6.90;;;;;;;;;;6181691;23;20080;-88
2022/01/13 22:17:13;;;;;;;30.92;6.93;;;;;;;;;;6179764;23;20337;-88
2022/01/13 22:19:39;;;;;;;40.58;7.85;;;;;;;;;;6181922;23;20005;-88
2022/01/13 22:22:09;;;;;;;41.42;7.35;;;;;;;;;;6181835;23;20036;-88
2022/01/13 22:24:36;;;;;;;35.90;6.75;;;;;;;;;;6182241;23;19997;-88
2022/01/13 22:27:02;;;;;;;52.05;8.55;;;;;;;;;;6182122;23;20015;-88
2022/01/13 22:29:27;;;;;;;36.17;7.15;;;;;;;;;;6154586;23;20009;-88
2022/01/13 22:31:52;;;;;;;32.80;6.20;;;;;;;;;;6181640;23;20009;-88
2022/01/13 22:34:18;;;;;;;46.07;7.50;;;;;;;;;;6154981;23;20232;-88
2022/01/13 22:36:43;;;;;;;37.30;8.25;;;;;;;;;;6182079;23;20252;-88
2022/01/13 22:39:08;;;;;;;32.28;6.22;;;;;;;;;;6181856;23;20001;-88
2022/01/13 22:41:34;;;;;;;38.42;7.07;;;;;;;;;;6154875;23;20017;-88
2022/01/13 22:43:59;;;;;;;39.45;6.75;;;;;;;;;;6155483;23;20401;-88
2022/01/13 22:46:25;;;;;;;34.50;7.40;;;;;;;;;;6181463;23;20055;-88
2022/01/13 22:48:50;;;;;;;47.10;7.28;;;;;;;;;;6181209;23;20035;-88
2022/01/13 22:51:15;;;;;;;48.65;8.32;;;;;;;;;;6155499;23;20104;-88
2022/01/13 22:53:40;;;;;;;37.42;6.90;;;;;;;;;;6181738;23;19997;-88
2022/01/13 22:56:05;;;;;;;35.30;7.00;;;;;;;;;;6181817;23;20001;-88
2022/01/13 22:58:31;;;;;;;42.57;6.80;;;;;;;;;;6181513;23;20260;-88
2022/01/13 23:00:56;;;;;;;45.67;7.47;;;;;;;;;;6184141;23;20254;-88
2022/01/13 23:03:22;;;;;;;35.83;5.35;;;;;;;;;;6157000;23;20136;-88
2022/01/13 23:05:48;;;;;;;40.85;6.57;;;;;;;;;;6157884;23;20052;-89
2022/01/13 23:08:13;;;;;;;38.97;7.38;;;;;;;;;;6157011;23;20031;-88
2022/01/13 23:10:38;;;;;;;39.28;6.13;;;;;;;;;;6182098;23;20008;-88
2022/01/13 23:13:04;;;;;;;28.83;5.40;;;;;;;;;;6156924;23;20067;-89
2022/01/13 23:23:23;;;;;;;44.95;8.93;;;;;;;;;;6183482;23;20020;-89
2022/01/13 23:25:48;;;;;;;39.42;5.53;;;;;;;;;;6183769;23;19997;-88
2022/01/13 23:28:14;;;;;;;34.97;7.53;;;;;;;;;;6183590;23;20334;-89
2022/01/13 23:30:39;;;;;;;49.22;8.32;;;;;;;;;;6181856;23;20015;-88
2022/01/13 23:33:04;;;;;;;52.33;7.72;;;;;;;;;;6182058;23;20001;-89
2022/01/13 23:35:29;;;;;;;41.03;7.30;;;;;;;;;;6157549;23;20120;-88
2022/01/13 23:37:55;;;;;;;43.92;8.27;;;;;;;;;;6182365;23;20011;-88
2022/01/13 23:40:21;;;;;;;36.38;5.80;;;;;;;;;;6183454;23;19997;-89
2022/01/13 23:42:51;;;;;;;38.10;6.80;;;;;;;;;;6182526;23;20080;-89
2022/01/13 23:45:25;;;;;;;47.80;8.02;;;;;;;;;;6184630;23;20377;-88
2022/01/13 23:47:50;;;;;;;44.75;7.50;;;;;;;;;;6183139;23;20653;-88
2022/01/13 23:50:15;;;;;;;33.23;7.43;;;;;;;;;;6182033;23;20083;-88
2022/01/13 23:52:41;;;;;;;39.58;7.40;;;;;;;;;;6183437;23;20225;-89
2022/01/13 23:55:06;;;;;;;40.28;7.85;;;;;;;;;;6183088;23;20001;-88
2022/01/13 23:57:32;;;;;;;42.78;8.27;;;;;;;;;;6156927;23;20092;-88
2022/01/13 23:59:58;;;;;;;47.58;8.52;;;;;;;;;;6156964;23;20079;-88
